Time,TemperatureF,DewpointF,PressureIn,WindDirection,WindDirectionDegrees,WindSpeedMPH,WindSpeedGustMPH,Humidity,HourlyPrecipIn,Conditions,Clouds,dailyrainin,SolarRadiationWatts/m^2,SoftwareType,DateUTC
2013-05-15 00:03:00,55.0,49.0,-100.00,WNW,294,5.0,8.0,81,0.00,,,0.00,0.000000,,2013-05-15 04:03:00,
2013-05-15 00:33:00,57.0,50.0,-100.00,WNW,283,5.0,11.0,78,0.00,,,0.00,0.000000,,2013-05-15 04:33:00,
2013-05-15 00:43:00,57.0,50.0,-100.00,WNW,283,5.0,11.0,78,0.00,,,0.00,0.000000,,2013-05-15 04:43:00,
2013-05-15 00:52:00,57.0,50.0,-100.00,WNW,283,5.0,11.0,78,0.00,,,0.00,0.000000,,2013-05-15 04:52:00,
2013-05-15 01:02:00,57.0,50.0,-100.00,WNW,283,5.0,11.0,78,0.00,,,0.00,0.000000,,2013-05-15 05:02:00,
2013-05-15 01:32:00,56.0,49.0,-100.00,WNW,292,5.0,9.0,77,0.00,,,0.00,0.000000,,2013-05-15 05:32:00,
2013-05-15 01:42:00,56.0,49.0,-100.00,WNW,292,5.0,9.0,77,0.00,,,0.00,0.000000,,2013-05-15 05:42:00,
2013-05-15 01:52:00,56.0,49.0,-100.00,WNW,292,5.0,9.0,77,0.00,,,0.00,0.000000,,2013-05-15 05:52:00,
2013-05-15 02:02:00,56.0,49.0,-100.00,WNW,292,5.0,9.0,77,0.00,,,0.00,0.000000,,2013-05-15 06:02:00,
2013-05-15 02:32:00,55.0,49.0,-100.00,NW,305,5.0,9.0,81,0.00,,,0.00,0.000000,,2013-05-15 06:32:00,
2013-05-15 02:42:00,55.0,49.0,-100.00,NW,305,5.0,9.0,81,0.00,,,0.00,0.000000,,2013-05-15 06:42:00,
2013-05-15 02:52:00,55.0,49.0,-100.00,NW,305,5.0,9.0,81,0.00,,,0.00,0.000000,,2013-05-15 06:52:00,
2013-05-15 03:01:00,55.0,49.0,-100.00,NW,305,5.0,9.0,81,0.00,,,0.00,0.000000,,2013-05-15 07:01:00,
2013-05-15 03:32:00,56.0,51.0,-100.00,NW,307,7.0,12.0,82,0.00,,,0.00,0.000000,,2013-05-15 07:32:00,
2013-05-15 03:42:00,56.0,51.0,-100.00,NW,307,7.0,12.0,82,0.00,,,0.00,0.000000,,2013-05-15 07:42:00,
2013-05-15 03:52:00,56.0,51.0,-100.00,NW,307,7.0,12.0,82,0.00,,,0.00,0.000000,,2013-05-15 07:52:00,
2013-05-15 04:02:00,56.0,51.0,-100.00,NW,307,7.0,12.0,82,0.00,,,0.00,0.000000,,2013-05-15 08:02:00,
2013-05-15 04:32:00,57.0,48.0,-100.00,NW,314,6.0,12.0,71,0.00,,,0.00,0.000000,,2013-05-15 08:32:00,
2013-05-15 04:42:00,57.0,48.0,-100.00,NW,314,6.0,12.0,71,0.00,,,0.00,0.000000,,2013-05-15 08:42:00,
2013-05-15 04:53:00,57.0,48.0,-100.00,NW,314,6.0,12.0,71,0.00,,,0.00,0.000000,,2013-05-15 08:53:00,
2013-05-15 05:01:00,57.0,48.0,-100.00,NW,314,6.0,12.0,71,0.00,,,0.00,0.000000,,2013-05-15 09:01:00,
2013-05-15 05:33:00,56.0,49.0,-100.00,NW,322,6.0,11.0,77,0.00,,,0.00,0.000000,,2013-05-15 09:33:00,
2013-05-15 05:42:00,56.0,49.0,-100.00,NW,322,6.0,11.0,77,0.00,,,0.00,0.000000,,2013-05-15 09:42:00,
2013-05-15 05:53:00,56.0,49.0,-100.00,NW,322,6.0,11.0,77,0.00,,,0.00,0.000000,,2013-05-15 09:53:00,
2013-05-15 06:02:00,56.0,49.0,-100.00,NW,322,6.0,11.0,77,0.00,,,0.00,0.000000,,2013-05-15 10:02:00,
2013-05-15 06:05:00,58.0,49.0,-100.00,NW,312,9.0,16.0,73,0.00,,,0.00,0.000000,,2013-05-15 10:05:00,
2013-05-15 06:32:00,58.0,49.0,-100.00,NW,312,9.0,16.0,73,0.00,,,0.00,0.000000,,2013-05-15 10:32:00,
2013-05-15 06:43:00,58.0,49.0,-100.00,NW,312,9.0,16.0,73,0.00,,,0.00,0.000000,,2013-05-15 10:43:00,
2013-05-15 06:53:00,58.0,49.0,-100.00,NW,312,9.0,16.0,73,0.00,,,0.00,0.000000,,2013-05-15 10:53:00,
2013-05-15 07:05:00,59.0,49.0,-100.00,NW,322,8.0,18.0,70,0.00,,,0.00,9.000000,,2013-05-15 11:05:00,
2013-05-15 07:39:00,59.0,49.0,-100.00,NW,322,8.0,18.0,70,0.00,,,0.00,9.000000,,2013-05-15 11:39:00,
2013-05-15 07:50:00,59.0,49.0,-100.00,NW,322,8.0,18.0,70,0.00,,,0.00,9.000000,,2013-05-15 11:50:00,
2013-05-15 08:01:00,59.0,49.0,-100.00,NW,322,8.0,18.0,70,0.00,,,0.00,9.000000,,2013-05-15 12:01:00,
2013-05-15 08:05:00,62.0,51.0,-100.00,NNW,331,8.0,17.0,67,0.00,,,0.00,38.000000,,2013-05-15 12:05:00,
2013-05-15 08:38:00,62.0,51.0,-100.00,NNW,331,8.0,17.0,67,0.00,,,0.00,38.000000,,2013-05-15 12:38:00,
2013-05-15 08:49:00,62.0,51.0,-100.00,NNW,331,8.0,17.0,67,0.00,,,0.00,38.000000,,2013-05-15 12:49:00,
2013-05-15 08:57:00,62.0,51.0,-100.00,NNW,331,8.0,17.0,67,0.00,,,0.00,38.000000,,2013-05-15 12:57:00,
2013-05-15 10:05:00,75.0,56.0,-100.00,NNW,337,6.0,17.0,52,-99.99,,,0.00,449.000000,,2013-05-15 14:05:00,
2013-05-15 10:39:00,75.0,56.0,-100.00,NNW,337,6.0,17.0,52,-99.99,,,0.00,449.000000,,2013-05-15 14:39:00,
2013-05-15 10:52:00,75.0,56.0,-100.00,NNW,337,6.0,17.0,52,-99.99,,,0.00,449.000000,,2013-05-15 14:52:00,
2013-05-15 10:59:00,75.0,56.0,-100.00,NNW,337,6.0,17.0,52,-99.99,,,0.00,449.000000,,2013-05-15 14:59:00,
2013-05-15 11:05:00,80.0,58.0,-100.00,NNW,346,6.0,16.0,47,0.00,,,0.00,793.000000,,2013-05-15 15:05:00,
2013-05-15 11:40:00,80.0,58.0,-100.00,NNW,346,6.0,16.0,47,0.00,,,0.00,793.000000,,2013-05-15 15:40:00,
2013-05-15 11:49:00,80.0,58.0,-100.00,NNW,346,6.0,16.0,47,0.00,,,0.00,793.000000,,2013-05-15 15:49:00,
2013-05-15 12:02:00,80.0,58.0,-100.00,NNW,346,6.0,16.0,47,0.00,,,0.00,793.000000,,2013-05-15 16:02:00,
2013-05-15 12:40:00,83.0,59.0,-100.00,NNW,338,9.0,17.0,44,0.00,,,0.00,941.000000,,2013-05-15 16:40:00,
2013-05-15 12:52:00,83.0,59.0,-100.00,NNW,338,9.0,17.0,44,0.00,,,0.00,941.000000,,2013-05-15 16:52:00,
2013-05-15 14:05:00,89.0,61.0,-100.00,NW,325,7.0,14.0,39,-99.99,,,0.00,1047.000000,,2013-05-15 18:05:00,
2013-05-15 14:38:00,89.0,61.0,-100.00,NW,325,7.0,14.0,39,-99.99,,,0.00,1047.000000,,2013-05-15 18:38:00,
2013-05-15 14:49:00,89.0,61.0,-100.00,NW,325,7.0,14.0,39,-99.99,,,0.00,1047.000000,,2013-05-15 18:49:00,
2013-05-15 15:05:00,92.0,61.0,-100.00,WNW,301,7.0,13.0,36,0.00,,,0.00,1002.000000,,2013-05-15 19:05:00,
2013-05-15 15:39:00,92.0,61.0,-100.00,WNW,301,7.0,13.0,36,0.00,,,0.00,1002.000000,,2013-05-15 19:39:00,
2013-05-15 16:05:00,92.0,60.0,-100.00,NW,323,7.0,14.0,34,0.00,,,0.00,890.000000,,2013-05-15 20:05:00,
2013-05-15 16:40:00,92.0,60.0,-100.00,NW,323,7.0,14.0,34,0.00,,,0.00,890.000000,,2013-05-15 20:40:00,
2013-05-15 16:59:00,92.0,60.0,-100.00,NW,323,7.0,14.0,34,0.00,,,0.00,890.000000,,2013-05-15 20:59:00,
2013-05-15 17:05:00,89.0,59.0,-100.00,NNW,341,7.0,14.0,36,0.00,,,-99.99,573.000000,,2013-05-15 21:05:00,
2013-05-15 17:53:00,89.0,59.0,-100.00,NNW,341,7.0,14.0,36,0.00,,,-99.99,573.000000,,2013-05-15 21:53:00,
2013-05-15 18:01:00,89.0,59.0,-100.00,NNW,341,7.0,14.0,36,0.00,,,-99.99,573.000000,,2013-05-15 22:01:00,
2013-05-15 18:42:00,85.0,60.0,-100.00,NW,314,7.0,16.0,43,0.00,,,0.00,63.000000,,2013-05-15 22:42:00,
2013-05-15 18:53:00,85.0,60.0,-100.00,NW,314,7.0,16.0,43,0.00,,,0.00,63.000000,,2013-05-15 22:53:00,
2013-05-15 19:00:00,85.0,60.0,-100.00,NW,314,7.0,16.0,43,0.00,,,0.00,63.000000,,2013-05-15 23:00:00,
2013-05-15 19:40:00,81.0,61.0,-100.00,NW,308,6.0,13.0,50,0.00,,,0.00,43.000000,,2013-05-15 23:40:00,
2013-05-15 21:40:00,71.0,62.0,-100.00,NW,307,5.0,9.0,73,-99.99,,,0.00,1.000000,,2013-05-16 01:40:00,
2013-05-15 22:05:00,69.0,63.0,-100.00,NW,311,5.0,9.0,81,0.00,,,0.00,0.000000,,2013-05-16 02:05:00,
2013-05-15 22:40:00,69.0,63.0,-100.00,NW,311,5.0,9.0,81,0.00,,,0.00,0.000000,,2013-05-16 02:40:00,
2013-05-15 22:49:00,69.0,63.0,-100.00,NW,311,5.0,9.0,81,0.00,,,0.00,0.000000,,2013-05-16 02:49:00,
2013-05-15 23:40:00,67.0,61.0,-100.00,NW,318,5.0,9.0,81,0.00,,,0.00,0.000000,,2013-05-16 03:40:00,
2013-05-15 23:47:00,67.0,61.0,-100.00,NW,318,5.0,9.0,81,0.00,,,0.00,0.000000,,2013-05-16 03:47:00,
2013-05-15 23:58:00,67.0,61.0,-100.00,NW,318,5.0,9.0,81,0.00,,,0.00,0.000000,,2013-05-16 03:58:00,